Terminal Aerodrome Forecast
Issued by NWS

Home | Current Version | Previous Version | Text Only | Print | Product List | Glossary On
Versions: 1 2 3 4 5 6 7 8 9 10 11 12 13 14 15 16 17 18
000
FTUS46 KMTR 171700
TAFMRY
TAF
KMRY 171736Z 1718/1818 29004KT P6SM SCT008
     FM172000 29008KT P6SM SCT010
     FM180200 29008KT P6SM BKN008
     FM180400 24005KT P6SM OVC007 PROB30 1808/1816 P6SM -DZ=

USA.gov is the U.S. government's official web portal to all federal, state and local government web resources and services.